sensor_id;sensor_type;location;lat;lon;timestamp;P1;durP1;ratioP1;P2;durP2;ratioP2
5690;SDS011;2870;42.680;23.364;2022-11-20T00:00:38;12.33;;;7.67;;
5690;SDS011;2870;42.680;23.364;2022-11-20T00:03:05;17.10;;;8.33;;
5690;SDS011;2870;42.680;23.364;2022-11-20T00:05:33;10.07;;;7.67;;
5690;SDS011;2870;42.680;23.364;2022-11-20T00:08:00;17.33;;;9.20;;
5690;SDS011;2870;42.680;23.364;2022-11-20T00:10:27;17.17;;;7.70;;
5690;SDS011;2870;42.680;23.364;2022-11-20T00:12:53;14.47;;;8.70;;
5690;SDS011;2870;42.680;23.364;2022-11-20T00:15:20;20.40;;;9.30;;
5690;SDS011;2870;42.680;23.364;2022-11-20T00:17:47;13.73;;;9.27;;
5690;SDS011;2870;42.680;23.364;2022-11-20T00:20:15;13.43;;;8.77;;
5690;SDS011;2870;42.680;23.364;2022-11-20T00:22:43;15.57;;;9.97;;
5690;SDS011;2870;42.680;23.364;2022-11-20T00:25:10;15.00;;;8.93;;
5690;SDS011;2870;42.680;23.364;2022-11-20T00:27:37;15.50;;;9.53;;
5690;SDS011;2870;42.680;23.364;2022-11-20T00:30:04;13.90;;;9.47;;
5690;SDS011;2870;42.680;23.364;2022-11-20T00:32:32;20.03;;;10.20;;
5690;SDS011;2870;42.680;23.364;2022-11-20T00:34:59;15.43;;;8.70;;
5690;SDS011;2870;42.680;23.364;2022-11-20T00:37:26;16.10;;;8.80;;
5690;SDS011;2870;42.680;23.364;2022-11-20T00:39:54;13.03;;;8.53;;
5690;SDS011;2870;42.680;23.364;2022-11-20T00:42:21;13.30;;;9.40;;
5690;SDS011;2870;42.680;23.364;2022-11-20T00:44:48;17.20;;;9.70;;
5690;SDS011;2870;42.680;23.364;2022-11-20T00:47:14;11.03;;;8.00;;
5690;SDS011;2870;42.680;23.364;2022-11-20T00:49:41;10.57;;;7.27;;
5690;SDS011;2870;42.680;23.364;2022-11-20T00:52:08;12.50;;;7.13;;
5690;SDS011;2870;42.680;23.364;2022-11-20T00:54:35;9.53;;;6.13;;
5690;SDS011;2870;42.680;23.364;2022-11-20T00:57:03;13.43;;;6.03;;
5690;SDS011;2870;42.680;23.364;2022-11-20T00:59:30;8.77;;;6.60;;
5690;SDS011;2870;42.680;23.364;2022-11-20T01:01:57;14.03;;;6.80;;
5690;SDS011;2870;42.680;23.364;2022-11-20T01:04:24;10.83;;;5.70;;
5690;SDS011;2870;42.680;23.364;2022-11-20T01:06:50;9.90;;;4.07;;
5690;SDS011;2870;42.680;23.364;2022-11-20T01:09:17;7.07;;;4.10;;
5690;SDS011;2870;42.680;23.364;2022-11-20T01:11:44;6.60;;;4.37;;
5690;SDS011;2870;42.680;23.364;2022-11-20T01:14:13;8.57;;;4.70;;
5690;SDS011;2870;42.680;23.364;2022-11-20T01:16:42;8.17;;;4.47;;
5690;SDS011;2870;42.680;23.364;2022-11-20T01:19:11;13.83;;;5.10;;
5690;SDS011;2870;42.680;23.364;2022-11-20T01:21:40;13.40;;;3.10;;
5690;SDS011;2870;42.680;23.364;2022-11-20T01:24:10;5.87;;;3.40;;
5690;SDS011;2870;42.680;23.364;2022-11-20T01:26:38;7.30;;;2.60;;
5690;SDS011;2870;42.680;23.364;2022-11-20T01:29:08;5.10;;;3.40;;
5690;SDS011;2870;42.680;23.364;2022-11-20T01:31:40;5.20;;;2.90;;
5690;SDS011;2870;42.680;23.364;2022-11-20T01:34:09;7.70;;;3.13;;
5690;SDS011;2870;42.680;23.364;2022-11-20T01:36:37;7.77;;;3.87;;
5690;SDS011;2870;42.680;23.364;2022-11-20T01:39:06;6.50;;;4.20;;
5690;SDS011;2870;42.680;23.364;2022-11-20T01:41:34;11.00;;;4.53;;
5690;SDS011;2870;42.680;23.364;2022-11-20T01:44:19;7.77;;;4.93;;
5690;SDS011;2870;42.680;23.364;2022-11-20T01:46:52;9.43;;;5.30;;
5690;SDS011;2870;42.680;23.364;2022-11-20T01:49:25;11.37;;;5.20;;
5690;SDS011;2870;42.680;23.364;2022-11-20T01:51:58;10.13;;;4.00;;
5690;SDS011;2870;42.680;23.364;2022-11-20T01:54:30;5.93;;;2.70;;
5690;SDS011;2870;42.680;23.364;2022-11-20T01:57:02;5.83;;;3.27;;
5690;SDS011;2870;42.680;23.364;2022-11-20T01:59:31;7.13;;;4.07;;
5690;SDS011;2870;42.680;23.364;2022-11-20T02:02:01;7.10;;;4.07;;
5690;SDS011;2870;42.680;23.364;2022-11-20T02:04:28;6.07;;;3.50;;
5690;SDS011;2870;42.680;23.364;2022-11-20T02:06:55;6.50;;;4.10;;
5690;SDS011;2870;42.680;23.364;2022-11-20T02:09:26;9.13;;;4.50;;
5690;SDS011;2870;42.680;23.364;2022-11-20T02:11:53;10.10;;;3.90;;
5690;SDS011;2870;42.680;23.364;2022-11-20T02:14:21;8.63;;;4.40;;
5690;SDS011;2870;42.680;23.364;2022-11-20T02:16:48;6.57;;;3.63;;
5690;SDS011;2870;42.680;23.364;2022-11-20T02:19:19;7.10;;;3.40;;
5690;SDS011;2870;42.680;23.364;2022-11-20T02:21:52;7.27;;;4.47;;
5690;SDS011;2870;42.680;23.364;2022-11-20T02:24:30;6.30;;;3.70;;
5690;SDS011;2870;42.680;23.364;2022-11-20T02:26:58;8.33;;;4.17;;
5690;SDS011;2870;42.680;23.364;2022-11-20T02:29:39;10.20;;;4.60;;
5690;SDS011;2870;42.680;23.364;2022-11-20T02:32:17;8.30;;;4.13;;
5690;SDS011;2870;42.680;23.364;2022-11-20T02:34:45;10.40;;;4.40;;
5690;SDS011;2870;42.680;23.364;2022-11-20T02:37:12;8.20;;;4.50;;
5690;SDS011;2870;42.680;23.364;2022-11-20T02:39:41;7.80;;;4.00;;
5690;SDS011;2870;42.680;23.364;2022-11-20T02:42:09;6.17;;;4.20;;
5690;SDS011;2870;42.680;23.364;2022-11-20T02:44:36;10.67;;;5.47;;
5690;SDS011;2870;42.680;23.364;2022-11-20T02:47:03;6.93;;;3.40;;
5690;SDS011;2870;42.680;23.364;2022-11-20T02:49:29;5.57;;;3.67;;
5690;SDS011;2870;42.680;23.364;2022-11-20T02:51:56;5.60;;;3.10;;
5690;SDS011;2870;42.680;23.364;2022-11-20T02:54:23;8.17;;;3.70;;
5690;SDS011;2870;42.680;23.364;2022-11-20T02:56:52;8.13;;;3.40;;
5690;SDS011;2870;42.680;23.364;2022-11-20T02:59:18;9.03;;;2.80;;
5690;SDS011;2870;42.680;23.364;2022-11-20T03:01:45;4.27;;;2.80;;
5690;SDS011;2870;42.680;23.364;2022-11-20T03:04:12;5.47;;;2.60;;
5690;SDS011;2870;42.680;23.364;2022-11-20T03:06:39;6.63;;;2.70;;
5690;SDS011;2870;42.680;23.364;2022-11-20T03:09:05;6.67;;;3.70;;
5690;SDS011;2870;42.680;23.364;2022-11-20T03:11:32;5.57;;;3.30;;
5690;SDS011;2870;42.680;23.364;2022-11-20T03:14:02;4.73;;;2.60;;
5690;SDS011;2870;42.680;23.364;2022-11-20T03:16:30;3.90;;;2.50;;
5690;SDS011;2870;42.680;23.364;2022-11-20T03:18:57;7.30;;;2.80;;
5690;SDS011;2870;42.680;23.364;2022-11-20T03:21:24;6.53;;;3.13;;
5690;SDS011;2870;42.680;23.364;2022-11-20T03:23:52;4.90;;;3.00;;
5690;SDS011;2870;42.680;23.364;2022-11-20T03:26:20;10.60;;;3.83;;
5690;SDS011;2870;42.680;23.364;2022-11-20T03:28:49;6.53;;;2.97;;
5690;SDS011;2870;42.680;23.364;2022-11-20T03:31:19;5.67;;;2.80;;
5690;SDS011;2870;42.680;23.364;2022-11-20T03:33:48;5.63;;;3.10;;
5690;SDS011;2870;42.680;23.364;2022-11-20T03:36:16;11.10;;;2.50;;
5690;SDS011;2870;42.680;23.364;2022-11-20T03:38:44;4.00;;;2.60;;
5690;SDS011;2870;42.680;23.364;2022-11-20T03:41:11;4.40;;;2.30;;
5690;SDS011;2870;42.680;23.364;2022-11-20T03:43:40;5.10;;;2.60;;
5690;SDS011;2870;42.680;23.364;2022-11-20T03:46:07;7.20;;;2.83;;
5690;SDS011;2870;42.680;23.364;2022-11-20T03:48:36;5.90;;;2.50;;
5690;SDS011;2870;42.680;23.364;2022-11-20T03:51:09;7.50;;;2.57;;
5690;SDS011;2870;42.680;23.364;2022-11-20T03:53:37;5.77;;;2.93;;
5690;SDS011;2870;42.680;23.364;2022-11-20T03:56:06;7.00;;;2.80;;
5690;SDS011;2870;42.680;23.364;2022-11-20T03:58:34;5.37;;;2.93;;
5690;SDS011;2870;42.680;23.364;2022-11-20T04:01:06;6.00;;;3.30;;
5690;SDS011;2870;42.680;23.364;2022-11-20T04:03:33;14.50;;;2.47;;
5690;SDS011;2870;42.680;23.364;2022-11-20T04:06:06;6.17;;;2.93;;
5690;SDS011;2870;42.680;23.364;2022-11-20T04:08:34;10.63;;;3.20;;
5690;SDS011;2870;42.680;23.364;2022-11-20T04:11:09;5.57;;;2.90;;
5690;SDS011;2870;42.680;23.364;2022-11-20T04:13:36;4.40;;;3.00;;
5690;SDS011;2870;42.680;23.364;2022-11-20T04:16:04;5.20;;;2.80;;
5690;SDS011;2870;42.680;23.364;2022-11-20T04:18:31;6.40;;;3.00;;
5690;SDS011;2870;42.680;23.364;2022-11-20T04:20:58;6.50;;;2.67;;
5690;SDS011;2870;42.680;23.364;2022-11-20T04:23:27;10.10;;;3.60;;
5690;SDS011;2870;42.680;23.364;2022-11-20T04:25:54;9.13;;;2.90;;
5690;SDS011;2870;42.680;23.364;2022-11-20T04:28:21;5.33;;;2.90;;
5690;SDS011;2870;42.680;23.364;2022-11-20T04:30:48;7.00;;;2.90;;
5690;SDS011;2870;42.680;23.364;2022-11-20T04:33:14;9.80;;;3.07;;
5690;SDS011;2870;42.680;23.364;2022-11-20T04:35:41;5.03;;;2.50;;
5690;SDS011;2870;42.680;23.364;2022-11-20T04:38:09;13.50;;;3.10;;
5690;SDS011;2870;42.680;23.364;2022-11-20T04:40:37;4.57;;;2.80;;
5690;SDS011;2870;42.680;23.364;2022-11-20T04:43:04;7.40;;;3.60;;
5690;SDS011;2870;42.680;23.364;2022-11-20T04:45:31;5.80;;;2.90;;
5690;SDS011;2870;42.680;23.364;2022-11-20T04:47:57;7.40;;;2.90;;
5690;SDS011;2870;42.680;23.364;2022-11-20T04:50:24;5.70;;;2.83;;
5690;SDS011;2870;42.680;23.364;2022-11-20T04:52:51;6.37;;;3.03;;
5690;SDS011;2870;42.680;23.364;2022-11-20T04:55:18;6.70;;;2.87;;
5690;SDS011;2870;42.680;23.364;2022-11-20T04:57:46;4.73;;;3.10;;
5690;SDS011;2870;42.680;23.364;2022-11-20T05:00:16;5.47;;;2.70;;
5690;SDS011;2870;42.680;23.364;2022-11-20T05:02:43;5.80;;;2.60;;
5690;SDS011;2870;42.680;23.364;2022-11-20T05:05:10;5.30;;;2.70;;
5690;SDS011;2870;42.680;23.364;2022-11-20T05:07:37;5.70;;;3.00;;
5690;SDS011;2870;42.680;23.364;2022-11-20T05:10:04;5.87;;;3.00;;
5690;SDS011;2870;42.680;23.364;2022-11-20T05:12:31;6.40;;;2.80;;
5690;SDS011;2870;42.680;23.364;2022-11-20T05:14:59;7.03;;;3.30;;
5690;SDS011;2870;42.680;23.364;2022-11-20T05:17:26;4.83;;;2.57;;
5690;SDS011;2870;42.680;23.364;2022-11-20T05:19:53;5.00;;;2.80;;
5690;SDS011;2870;42.680;23.364;2022-11-20T05:22:20;6.23;;;2.53;;
5690;SDS011;2870;42.680;23.364;2022-11-20T05:24:47;5.83;;;2.77;;
5690;SDS011;2870;42.680;23.364;2022-11-20T05:27:14;6.23;;;2.90;;
5690;SDS011;2870;42.680;23.364;2022-11-20T05:29:40;7.43;;;3.00;;
5690;SDS011;2870;42.680;23.364;2022-11-20T05:32:09;10.13;;;3.60;;
5690;SDS011;2870;42.680;23.364;2022-11-20T05:34:35;5.17;;;2.93;;
5690;SDS011;2870;42.680;23.364;2022-11-20T05:37:02;7.50;;;3.37;;
5690;SDS011;2870;42.680;23.364;2022-11-20T05:39:29;7.03;;;3.10;;
5690;SDS011;2870;42.680;23.364;2022-11-20T05:41:56;10.33;;;3.30;;
5690;SDS011;2870;42.680;23.364;2022-11-20T05:44:36;5.23;;;2.90;;
5690;SDS011;2870;42.680;23.364;2022-11-20T05:47:03;5.13;;;3.80;;
5690;SDS011;2870;42.680;23.364;2022-11-20T05:49:32;5.17;;;2.73;;
5690;SDS011;2870;42.680;23.364;2022-11-20T05:51:59;5.73;;;2.97;;
5690;SDS011;2870;42.680;23.364;2022-11-20T05:54:25;7.83;;;3.50;;
5690;SDS011;2870;42.680;23.364;2022-11-20T05:56:52;7.57;;;3.30;;
5690;SDS011;2870;42.680;23.364;2022-11-20T05:59:19;7.50;;;3.73;;
5690;SDS011;2870;42.680;23.364;2022-11-20T06:01:46;10.20;;;3.53;;
5690;SDS011;2870;42.680;23.364;2022-11-20T06:04:12;5.17;;;3.03;;
5690;SDS011;2870;42.680;23.364;2022-11-20T06:06:41;8.20;;;3.50;;
5690;SDS011;2870;42.680;23.364;2022-11-20T06:09:07;5.90;;;3.37;;
5690;SDS011;2870;42.680;23.364;2022-11-20T06:11:34;7.73;;;3.10;;
5690;SDS011;2870;42.680;23.364;2022-11-20T06:14:01;6.53;;;3.27;;
5690;SDS011;2870;42.680;23.364;2022-11-20T06:16:28;5.67;;;2.90;;
5690;SDS011;2870;42.680;23.364;2022-11-20T06:18:54;11.10;;;3.23;;
5690;SDS011;2870;42.680;23.364;2022-11-20T06:21:22;6.33;;;4.00;;
5690;SDS011;2870;42.680;23.364;2022-11-20T06:23:51;7.40;;;3.57;;
5690;SDS011;2870;42.680;23.364;2022-11-20T06:26:19;13.77;;;3.40;;
5690;SDS011;2870;42.680;23.364;2022-11-20T06:28:47;5.47;;;2.90;;
5690;SDS011;2870;42.680;23.364;2022-11-20T06:31:15;4.90;;;3.00;;
5690;SDS011;2870;42.680;23.364;2022-11-20T06:33:44;11.07;;;3.43;;
5690;SDS011;2870;42.680;23.364;2022-11-20T06:36:11;9.50;;;4.50;;
5690;SDS011;2870;42.680;23.364;2022-11-20T06:38:40;7.03;;;3.90;;
5690;SDS011;2870;42.680;23.364;2022-11-20T06:41:09;9.70;;;4.80;;
5690;SDS011;2870;42.680;23.364;2022-11-20T06:43:37;7.57;;;3.13;;
5690;SDS011;2870;42.680;23.364;2022-11-20T06:46:04;7.60;;;3.73;;
5690;SDS011;2870;42.680;23.364;2022-11-20T06:48:31;10.00;;;4.97;;
5690;SDS011;2870;42.680;23.364;2022-11-20T06:50:58;5.80;;;3.60;;
5690;SDS011;2870;42.680;23.364;2022-11-20T06:53:25;7.20;;;3.47;;
5690;SDS011;2870;42.680;23.364;2022-11-20T06:55:52;6.50;;;3.50;;
5690;SDS011;2870;42.680;23.364;2022-11-20T06:58:25;5.33;;;3.30;;
5690;SDS011;2870;42.680;23.364;2022-11-20T07:00:53;6.50;;;3.40;;
5690;SDS011;2870;42.680;23.364;2022-11-20T07:03:24;7.30;;;3.40;;
5690;SDS011;2870;42.680;23.364;2022-11-20T07:05:54;8.17;;;3.70;;
5690;SDS011;2870;42.680;23.364;2022-11-20T07:08:21;8.33;;;3.40;;
5690;SDS011;2870;42.680;23.364;2022-11-20T07:10:48;5.93;;;2.97;;
5690;SDS011;2870;42.680;23.364;2022-11-20T07:13:15;8.10;;;4.20;;
5690;SDS011;2870;42.680;23.364;2022-11-20T07:15:43;6.97;;;3.10;;
5690;SDS011;2870;42.680;23.364;2022-11-20T07:18:10;10.67;;;4.27;;
5690;SDS011;2870;42.680;23.364;2022-11-20T07:20:37;8.03;;;3.57;;
5690;SDS011;2870;42.680;23.364;2022-11-20T07:23:04;7.20;;;3.97;;
5690;SDS011;2870;42.680;23.364;2022-11-20T07:25:30;16.80;;;3.90;;
5690;SDS011;2870;42.680;23.364;2022-11-20T07:27:58;11.23;;;4.00;;
5690;SDS011;2870;42.680;23.364;2022-11-20T07:30:25;11.63;;;4.57;;
5690;SDS011;2870;42.680;23.364;2022-11-20T07:32:54;7.50;;;3.57;;
5690;SDS011;2870;42.680;23.364;2022-11-20T07:35:22;10.27;;;3.57;;
5690;SDS011;2870;42.680;23.364;2022-11-20T07:37:50;8.10;;;3.50;;
5690;SDS011;2870;42.680;23.364;2022-11-20T07:40:17;8.80;;;4.07;;
5690;SDS011;2870;42.680;23.364;2022-11-20T07:42:47;8.37;;;3.90;;
5690;SDS011;2870;42.680;23.364;2022-11-20T07:45:15;6.57;;;3.70;;
5690;SDS011;2870;42.680;23.364;2022-11-20T07:47:42;8.20;;;3.37;;
5690;SDS011;2870;42.680;23.364;2022-11-20T07:50:11;18.73;;;3.30;;
5690;SDS011;2870;42.680;23.364;2022-11-20T07:52:38;16.13;;;3.53;;
5690;SDS011;2870;42.680;23.364;2022-11-20T07:55:06;7.83;;;3.20;;
5690;SDS011;2870;42.680;23.364;2022-11-20T07:57:33;12.40;;;3.70;;
5690;SDS011;2870;42.680;23.364;2022-11-20T08:00:00;11.50;;;4.07;;
5690;SDS011;2870;42.680;23.364;2022-11-20T08:02:27;10.43;;;4.20;;
5690;SDS011;2870;42.680;23.364;2022-11-20T08:04:54;9.60;;;4.80;;
5690;SDS011;2870;42.680;23.364;2022-11-20T08:07:22;8.80;;;3.83;;
5690;SDS011;2870;42.680;23.364;2022-11-20T08:09:49;7.73;;;3.90;;
5690;SDS011;2870;42.680;23.364;2022-11-20T08:12:16;9.27;;;5.03;;
5690;SDS011;2870;42.680;23.364;2022-11-20T08:15:13;12.93;;;4.97;;
5690;SDS011;2870;42.680;23.364;2022-11-20T08:17:40;7.93;;;4.37;;
5690;SDS011;2870;42.680;23.364;2022-11-20T08:20:07;6.30;;;3.47;;
5690;SDS011;2870;42.680;23.364;2022-11-20T08:22:36;11.53;;;4.53;;
5690;SDS011;2870;42.680;23.364;2022-11-20T08:25:03;7.00;;;3.97;;
5690;SDS011;2870;42.680;23.364;2022-11-20T08:27:31;9.70;;;3.63;;
5690;SDS011;2870;42.680;23.364;2022-11-20T08:29:58;6.30;;;4.03;;
5690;SDS011;2870;42.680;23.364;2022-11-20T08:32:25;6.90;;;4.13;;
5690;SDS011;2870;42.680;23.364;2022-11-20T08:34:51;7.20;;;3.80;;
5690;SDS011;2870;42.680;23.364;2022-11-20T08:37:18;7.97;;;3.10;;
5690;SDS011;2870;42.680;23.364;2022-11-20T08:39:46;7.97;;;3.90;;
5690;SDS011;2870;42.680;23.364;2022-11-20T08:42:13;12.40;;;5.17;;
5690;SDS011;2870;42.680;23.364;2022-11-20T08:44:40;15.93;;;3.80;;
5690;SDS011;2870;42.680;23.364;2022-11-20T08:47:08;11.57;;;3.92;;
5690;SDS011;2870;42.680;23.364;2022-11-20T08:49:34;15.17;;;3.83;;
5690;SDS011;2870;42.680;23.364;2022-11-20T08:52:01;10.57;;;4.20;;
5690;SDS011;2870;42.680;23.364;2022-11-20T08:54:28;12.53;;;5.17;;
5690;SDS011;2870;42.680;23.364;2022-11-20T08:56:56;13.70;;;6.40;;
5690;SDS011;2870;42.680;23.364;2022-11-20T08:59:23;10.27;;;5.03;;
5690;SDS011;2870;42.680;23.364;2022-11-20T09:01:50;11.33;;;5.40;;
5690;SDS011;2870;42.680;23.364;2022-11-20T09:04:17;14.37;;;5.10;;
5690;SDS011;2870;42.680;23.364;2022-11-20T09:06:43;9.90;;;5.33;;
5690;SDS011;2870;42.680;23.364;2022-11-20T09:09:10;11.00;;;6.20;;
5690;SDS011;2870;42.680;23.364;2022-11-20T09:11:37;10.70;;;5.60;;
5690;SDS011;2870;42.680;23.364;2022-11-20T09:14:05;29.73;;;6.20;;
5690;SDS011;2870;42.680;23.364;2022-11-20T09:16:32;21.73;;;7.83;;
5690;SDS011;2870;42.680;23.364;2022-11-20T09:18:59;21.50;;;6.80;;
5690;SDS011;2870;42.680;23.364;2022-11-20T09:21:26;19.07;;;6.60;;
5690;SDS011;2870;42.680;23.364;2022-11-20T09:23:52;16.00;;;5.50;;
5690;SDS011;2870;42.680;23.364;2022-11-20T09:26:19;12.23;;;6.30;;
5690;SDS011;2870;42.680;23.364;2022-11-20T09:28:46;11.63;;;6.70;;
5690;SDS011;2870;42.680;23.364;2022-11-20T09:31:17;6.53;;;4.60;;
5690;SDS011;2870;42.680;23.364;2022-11-20T09:33:48;8.67;;;4.20;;
5690;SDS011;2870;42.680;23.364;2022-11-20T09:36:15;7.80;;;5.20;;
5690;SDS011;2870;42.680;23.364;2022-11-20T09:38:45;5.83;;;3.60;;
5690;SDS011;2870;42.680;23.364;2022-11-20T09:41:18;5.50;;;3.00;;
5690;SDS011;2870;42.680;23.364;2022-11-20T09:43:57;8.23;;;3.70;;
5690;SDS011;2870;42.680;23.364;2022-11-20T09:46:38;7.20;;;3.83;;
5690;SDS011;2870;42.680;23.364;2022-11-20T09:49:15;5.53;;;3.00;;
5690;SDS011;2870;42.680;23.364;2022-11-20T09:51:52;7.63;;;3.43;;
5690;SDS011;2870;42.680;23.364;2022-11-20T09:54:26;6.00;;;3.40;;
5690;SDS011;2870;42.680;23.364;2022-11-20T09:56:58;5.60;;;3.60;;
5690;SDS011;2870;42.680;23.364;2022-11-20T09:59:28;5.30;;;3.90;;
5690;SDS011;2870;42.680;23.364;2022-11-20T10:02:01;7.30;;;3.87;;
5690;SDS011;2870;42.680;23.364;2022-11-20T10:04:37;8.87;;;4.40;;
5690;SDS011;2870;42.680;23.364;2022-11-20T10:07:11;10.00;;;4.60;;
5690;SDS011;2870;42.680;23.364;2022-11-20T10:09:43;7.73;;;4.70;;
5690;SDS011;2870;42.680;23.364;2022-11-20T10:12:18;8.40;;;4.83;;
5690;SDS011;2870;42.680;23.364;2022-11-20T10:14:56;8.20;;;4.73;;
5690;SDS011;2870;42.680;23.364;2022-11-20T10:17:46;11.13;;;7.60;;
5690;SDS011;2870;42.680;23.364;2022-11-20T10:20:34;10.20;;;6.53;;
5690;SDS011;2870;42.680;23.364;2022-11-20T10:23:16;9.50;;;5.50;;
5690;SDS011;2870;42.680;23.364;2022-11-20T10:25:55;10.80;;;6.30;;
5690;SDS011;2870;42.680;23.364;2022-11-20T10:28:41;13.93;;;6.10;;
5690;SDS011;2870;42.680;23.364;2022-11-20T10:31:25;18.53;;;6.87;;
5690;SDS011;2870;42.680;23.364;2022-11-20T10:33:57;9.63;;;6.13;;
5690;SDS011;2870;42.680;23.364;2022-11-20T10:36:29;11.40;;;6.60;;
5690;SDS011;2870;42.680;23.364;2022-11-20T10:39:03;16.30;;;6.13;;
5690;SDS011;2870;42.680;23.364;2022-11-20T10:41:37;15.27;;;7.83;;
5690;SDS011;2870;42.680;23.364;2022-11-20T10:44:09;13.40;;;6.77;;
5690;SDS011;2870;42.680;23.364;2022-11-20T10:46:42;13.57;;;7.40;;
5690;SDS011;2870;42.680;23.364;2022-11-20T10:49:12;18.73;;;7.10;;
5690;SDS011;2870;42.680;23.364;2022-11-20T10:51:44;11.13;;;6.43;;
5690;SDS011;2870;42.680;23.364;2022-11-20T10:54:22;10.70;;;6.47;;
5690;SDS011;2870;42.680;23.364;2022-11-20T10:56:59;12.00;;;6.30;;
5690;SDS011;2870;42.680;23.364;2022-11-20T10:59:49;15.03;;;5.80;;
5690;SDS011;2870;42.680;23.364;2022-11-20T11:02:31;13.60;;;6.80;;
5690;SDS011;2870;42.680;23.364;2022-11-20T11:05:04;18.47;;;6.97;;
5690;SDS011;2870;42.680;23.364;2022-11-20T11:07:39;16.90;;;6.87;;
5690;SDS011;2870;42.680;23.364;2022-11-20T11:10:13;17.77;;;7.83;;
5690;SDS011;2870;42.680;23.364;2022-11-20T11:12:42;17.47;;;6.87;;
5690;SDS011;2870;42.680;23.364;2022-11-20T11:15:12;21.90;;;8.53;;
5690;SDS011;2870;42.680;23.364;2022-11-20T11:17:51;13.47;;;6.37;;
5690;SDS011;2870;42.680;23.364;2022-11-20T11:20:20;17.40;;;6.93;;
5690;SDS011;2870;42.680;23.364;2022-11-20T11:22:49;9.63;;;4.10;;
5690;SDS011;2870;42.680;23.364;2022-11-20T11:25:25;4.90;;;3.00;;
5690;SDS011;2870;42.680;23.364;2022-11-20T11:27:54;4.13;;;3.10;;
5690;SDS011;2870;42.680;23.364;2022-11-20T11:30:23;9.40;;;3.90;;
5690;SDS011;2870;42.680;23.364;2022-11-20T11:33:01;6.20;;;3.23;;
5690;SDS011;2870;42.680;23.364;2022-11-20T11:35:31;4.87;;;3.00;;
5690;SDS011;2870;42.680;23.364;2022-11-20T11:38:02;5.03;;;3.17;;
5690;SDS011;2870;42.680;23.364;2022-11-20T11:40:32;6.43;;;3.40;;
5690;SDS011;2870;42.680;23.364;2022-11-20T11:43:04;5.40;;;3.20;;
5690;SDS011;2870;42.680;23.364;2022-11-20T11:45:53;5.90;;;3.37;;
5690;SDS011;2870;42.680;23.364;2022-11-20T11:48:20;6.60;;;2.90;;
5690;SDS011;2870;42.680;23.364;2022-11-20T11:50:49;4.90;;;3.17;;
5690;SDS011;2870;42.680;23.364;2022-11-20T11:53:17;9.50;;;3.20;;
5690;SDS011;2870;42.680;23.364;2022-11-20T11:55:47;7.30;;;3.30;;
5690;SDS011;2870;42.680;23.364;2022-11-20T11:58:28;7.10;;;3.90;;
5690;SDS011;2870;42.680;23.364;2022-11-20T12:01:10;4.70;;;3.00;;
5690;SDS011;2870;42.680;23.364;2022-11-20T12:03:52;7.10;;;3.97;;
5690;SDS011;2870;42.680;23.364;2022-11-20T12:06:27;13.30;;;3.53;;
5690;SDS011;2870;42.680;23.364;2022-11-20T12:08:57;8.00;;;3.70;;
5690;SDS011;2870;42.680;23.364;2022-11-20T12:11:29;6.90;;;3.20;;
5690;SDS011;2870;42.680;23.364;2022-11-20T12:14:01;7.87;;;3.30;;
5690;SDS011;2870;42.680;23.364;2022-11-20T12:16:34;7.80;;;3.50;;
5690;SDS011;2870;42.680;23.364;2022-11-20T12:19:04;7.27;;;3.57;;
5690;SDS011;2870;42.680;23.364;2022-11-20T12:21:39;6.93;;;3.13;;
5690;SDS011;2870;42.680;23.364;2022-11-20T12:24:30;4.60;;;3.27;;
5690;SDS011;2870;42.680;23.364;2022-11-20T12:27:23;7.10;;;3.47;;
5690;SDS011;2870;42.680;23.364;2022-11-20T12:30:08;5.97;;;3.47;;
5690;SDS011;2870;42.680;23.364;2022-11-20T12:32:40;5.33;;;2.90;;
5690;SDS011;2870;42.680;23.364;2022-11-20T12:38:44;10.70;;;3.43;;
5690;SDS011;2870;42.680;23.364;2022-11-20T12:41:22;7.33;;;3.20;;
5690;SDS011;2870;42.680;23.364;2022-11-20T12:44:21;9.67;;;3.47;;
5690;SDS011;2870;42.680;23.364;2022-11-20T12:47:21;8.33;;;3.67;;
5690;SDS011;2870;42.680;23.364;2022-11-20T12:49:56;12.17;;;3.80;;
5690;SDS011;2870;42.680;23.364;2022-11-20T12:52:37;7.30;;;3.13;;
5690;SDS011;2870;42.680;23.364;2022-11-20T12:55:15;5.57;;;3.60;;
5690;SDS011;2870;42.680;23.364;2022-11-20T12:57:50;10.97;;;3.23;;
5690;SDS011;2870;42.680;23.364;2022-11-20T13:00:21;6.23;;;3.80;;
5690;SDS011;2870;42.680;23.364;2022-11-20T13:03:13;6.50;;;4.90;;
5690;SDS011;2870;42.680;23.364;2022-11-20T13:05:55;12.60;;;5.77;;
5690;SDS011;2870;42.680;23.364;2022-11-20T13:08:27;12.33;;;5.87;;
5690;SDS011;2870;42.680;23.364;2022-11-20T13:10:58;9.33;;;5.37;;
5690;SDS011;2870;42.680;23.364;2022-11-20T13:13:33;13.23;;;6.00;;
5690;SDS011;2870;42.680;23.364;2022-11-20T13:16:08;11.13;;;6.77;;
5690;SDS011;2870;42.680;23.364;2022-11-20T13:18:42;8.90;;;6.50;;
5690;SDS011;2870;42.680;23.364;2022-11-20T13:21:17;13.73;;;6.40;;
5690;SDS011;2870;42.680;23.364;2022-11-20T13:23:45;12.00;;;5.30;;
5690;SDS011;2870;42.680;23.364;2022-11-20T13:26:17;13.70;;;6.10;;
5690;SDS011;2870;42.680;23.364;2022-11-20T13:28:46;11.47;;;5.03;;
5690;SDS011;2870;42.680;23.364;2022-11-20T13:31:25;10.03;;;4.90;;
5690;SDS011;2870;42.680;23.364;2022-11-20T13:33:56;9.80;;;4.90;;
5690;SDS011;2870;42.680;23.364;2022-11-20T13:36:26;11.23;;;5.23;;
5690;SDS011;2870;42.680;23.364;2022-11-20T13:38:54;8.53;;;5.20;;
5690;SDS011;2870;42.680;23.364;2022-11-20T13:41:27;9.20;;;4.37;;
5690;SDS011;2870;42.680;23.364;2022-11-20T13:43:59;6.47;;;4.40;;
5690;SDS011;2870;42.680;23.364;2022-11-20T13:46:36;11.37;;;5.70;;
5690;SDS011;2870;42.680;23.364;2022-11-20T13:49:08;9.67;;;5.53;;
5690;SDS011;2870;42.680;23.364;2022-11-20T13:51:40;7.90;;;5.40;;
5690;SDS011;2870;42.680;23.364;2022-11-20T13:57:19;13.23;;;5.47;;
5690;SDS011;2870;42.680;23.364;2022-11-20T14:00:10;15.13;;;7.00;;
5690;SDS011;2870;42.680;23.364;2022-11-20T14:02:38;13.87;;;6.43;;
5690;SDS011;2870;42.680;23.364;2022-11-20T14:05:11;9.30;;;5.10;;
5690;SDS011;2870;42.680;23.364;2022-11-20T14:07:45;11.00;;;6.00;;
5690;SDS011;2870;42.680;23.364;2022-11-20T14:10:19;14.40;;;5.70;;
5690;SDS011;2870;42.680;23.364;2022-11-20T14:12:50;9.20;;;5.57;;
5690;SDS011;2870;42.680;23.364;2022-11-20T14:15:24;9.20;;;5.77;;
5690;SDS011;2870;42.680;23.364;2022-11-20T14:17:52;9.70;;;6.37;;
5690;SDS011;2870;42.680;23.364;2022-11-20T14:20:19;15.00;;;5.10;;
5690;SDS011;2870;42.680;23.364;2022-11-20T14:22:50;12.40;;;6.43;;
5690;SDS011;2870;42.680;23.364;2022-11-20T14:25:18;10.60;;;6.50;;
5690;SDS011;2870;42.680;23.364;2022-11-20T14:27:51;13.23;;;5.60;;
5690;SDS011;2870;42.680;23.364;2022-11-20T14:30:20;13.07;;;6.37;;
5690;SDS011;2870;42.680;23.364;2022-11-20T14:32:49;15.33;;;6.37;;
5690;SDS011;2870;42.680;23.364;2022-11-20T14:35:18;30.03;;;25.73;;
5690;SDS011;2870;42.680;23.364;2022-11-20T14:37:49;14.80;;;9.03;;
5690;SDS011;2870;42.680;23.364;2022-11-20T14:40:24;9.50;;;6.97;;
5690;SDS011;2870;42.680;23.364;2022-11-20T14:42:55;13.87;;;9.57;;
5690;SDS011;2870;42.680;23.364;2022-11-20T14:45:22;13.87;;;7.93;;
5690;SDS011;2870;42.680;23.364;2022-11-20T14:47:50;21.53;;;7.70;;
5690;SDS011;2870;42.680;23.364;2022-11-20T14:50:19;20.07;;;8.23;;
5690;SDS011;2870;42.680;23.364;2022-11-20T14:52:50;15.83;;;7.90;;
5690;SDS011;2870;42.680;23.364;2022-11-20T14:55:25;16.23;;;7.80;;
5690;SDS011;2870;42.680;23.364;2022-11-20T14:57:58;12.60;;;8.30;;
5690;SDS011;2870;42.680;23.364;2022-11-20T15:00:26;11.57;;;7.53;;
5690;SDS011;2870;42.680;23.364;2022-11-20T15:02:54;13.23;;;8.00;;
5690;SDS011;2870;42.680;23.364;2022-11-20T15:05:21;16.47;;;8.37;;
5690;SDS011;2870;42.680;23.364;2022-11-20T15:07:50;14.13;;;8.50;;
5690;SDS011;2870;42.680;23.364;2022-11-20T15:10:20;11.87;;;7.53;;
5690;SDS011;2870;42.680;23.364;2022-11-20T15:12:49;16.23;;;8.63;;
5690;SDS011;2870;42.680;23.364;2022-11-20T15:15:20;7.80;;;5.77;;
5690;SDS011;2870;42.680;23.364;2022-11-20T15:17:49;12.00;;;6.17;;
5690;SDS011;2870;42.680;23.364;2022-11-20T15:20:16;11.63;;;7.40;;